createdAt,value
2018-02-15T05:08:31.847Z,-1.10
2018-02-15T05:11:00.164Z,-1.10
2018-02-15T05:13:28.501Z,-1.10
2018-02-15T05:15:56.812Z,-1.10
2018-02-15T05:18:26.037Z,-1.10
2018-02-15T05:20:54.362Z,-1.10
2018-02-15T05:23:22.696Z,-1.10
2018-02-15T05:25:51.012Z,-1.10
2018-02-15T05:28:19.370Z,-1.00
2018-02-15T05:30:47.675Z,-1.00
2018-02-15T05:33:16.012Z,-1.00
2018-02-15T05:35:44.331Z,-1.00
2018-02-15T05:38:12.661Z,-1.00
2018-02-15T05:40:40.967Z,-1.00
2018-02-15T05:43:09.305Z,-1.00
2018-02-15T05:45:37.640Z,-0.90
2018-02-15T05:48:05.983Z,-0.90
2018-02-15T05:50:34.295Z,-0.90
2018-02-15T05:53:02.635Z,-0.80
2018-02-15T05:55:30.957Z,-0.80
2018-02-15T05:57:59.297Z,-0.80
2018-02-15T06:00:27.618Z,-0.70
2018-02-15T06:02:55.955Z,-0.80
2018-02-15T06:05:24.268Z,-0.80
2018-02-15T06:07:52.605Z,-0.70
2018-02-15T06:10:20.916Z,-0.70
2018-02-15T06:12:49.250Z,-0.70
2018-02-15T06:15:17.564Z,-0.70
2018-02-15T06:17:45.915Z,-0.60
2018-02-15T06:20:14.237Z,-0.60
2018-02-15T06:22:42.589Z,-0.60
2018-02-15T06:25:10.901Z,-0.60
2018-02-15T06:27:39.237Z,-0.60
2018-02-15T06:30:07.559Z,-0.50
2018-02-15T06:32:37.828Z,-0.50
2018-02-15T06:35:06.157Z,-0.50
2018-02-15T06:37:34.505Z,-0.50
2018-02-15T06:40:02.814Z,-0.40
2018-02-15T06:42:31.145Z,-0.50
2018-02-15T06:45:00.250Z,-0.50
2018-02-15T06:47:28.563Z,-0.50
2018-02-15T06:49:56.903Z,-0.50
2018-02-15T06:52:25.218Z,-0.50
2018-02-15T06:54:53.547Z,-0.40
2018-02-15T06:57:21.857Z,-0.40
2018-02-15T06:59:50.208Z,-0.40
2018-02-15T07:02:18.519Z,-0.40
2018-02-15T07:04:46.844Z,-0.40
2018-02-15T07:07:15.949Z,-0.40
2018-02-15T07:09:44.257Z,-0.40
2018-02-15T07:12:12.597Z,-0.40
2018-02-15T07:14:41.686Z,-0.40
2018-02-15T07:17:10.784Z,-0.30
2018-02-15T07:19:39.864Z,-0.30
2018-02-15T07:22:08.207Z,-0.30
2018-02-15T07:24:36.547Z,-0.30
2018-02-15T07:27:05.649Z,-0.30
2018-02-15T07:29:33.964Z,-0.30
2018-02-15T07:32:02.300Z,-0.30
2018-02-15T07:34:30.612Z,-0.20
2018-02-15T07:36:58.956Z,-0.20
2018-02-15T07:39:28.042Z,-0.20
2018-02-15T07:41:56.397Z,-0.20
2018-02-15T07:44:24.721Z,-0.20
2018-02-15T07:46:53.052Z,-0.20
2018-02-15T07:49:21.373Z,-0.20
2018-02-15T07:51:49.716Z,-0.20
2018-02-15T07:54:18.029Z,-0.10
2018-02-15T07:56:46.366Z,-0.10
2018-02-15T07:59:14.679Z,-0.10
2018-02-15T08:01:43.780Z,0.00
2018-02-15T08:04:12.847Z,0.00
2018-02-15T08:06:41.192Z,0.00
2018-02-15T08:09:09.497Z,0.00
2018-02-15T08:11:37.833Z,0.10
2018-02-15T08:14:06.163Z,0.10
2018-02-15T08:16:34.487Z,0.10
2018-02-15T08:19:02.826Z,0.20
2018-02-15T08:21:33.045Z,0.20
2018-02-15T08:24:01.381Z,0.20
2018-02-15T08:26:29.697Z,0.20
2018-02-15T08:28:58.027Z,0.20
2018-02-15T08:31:26.345Z,0.30
2018-02-15T08:33:54.680Z,0.30
2018-02-15T08:36:23.757Z,0.40
2018-02-15T08:38:52.846Z,0.40
2018-02-15T08:41:21.929Z,0.40
2018-02-15T08:43:50.261Z,0.40
2018-02-15T08:46:18.567Z,0.40
2018-02-15T08:48:46.900Z,0.50
2018-02-15T08:51:15.215Z,0.50
2018-02-15T08:53:44.482Z,0.50
2018-02-15T08:56:12.796Z,0.50
2018-02-15T08:58:41.127Z,0.50
2018-02-15T09:01:09.437Z,0.60
2018-02-15T09:03:37.785Z,0.60
2018-02-15T09:06:06.088Z,0.70
2018-02-15T09:08:34.916Z,0.60
2018-02-15T09:11:03.219Z,0.70
2018-02-15T09:13:32.318Z,0.70
2018-02-15T09:16:00.648Z,0.70
2018-02-15T09:18:28.976Z,0.70
2018-02-15T09:20:57.310Z,0.70
2018-02-15T09:23:25.621Z,0.70
2018-02-15T09:25:53.948Z,0.70
2018-02-15T09:28:22.256Z,0.70
2018-02-15T09:30:50.587Z,0.70
2018-02-15T09:33:18.906Z,0.70
2018-02-15T09:35:47.239Z,0.80
2018-02-15T09:38:21.476Z,0.80
2018-02-15T09:40:49.809Z,0.80
2018-02-15T09:43:18.892Z,0.90
2018-02-15T09:45:47.285Z,0.90
2018-02-15T09:48:15.563Z,0.90
2018-02-15T09:50:44.669Z,1.00
2018-02-15T09:53:13.745Z,1.10
2018-02-15T09:55:42.080Z,1.00
2018-02-15T09:58:16.469Z,1.00
2018-02-15T10:00:52.373Z,1.10
2018-02-15T10:03:20.680Z,1.10
2018-02-15T10:05:49.801Z,1.10
2018-02-15T10:08:18.157Z,1.10
2018-02-15T10:10:46.460Z,1.20
2018-02-15T10:13:14.771Z,1.30
2018-02-15T10:15:43.107Z,1.30
2018-02-15T10:18:12.200Z,0.90
2018-02-15T10:20:41.263Z,1.00
2018-02-15T10:23:09.597Z,0.90
2018-02-15T10:25:37.905Z,0.90
2018-02-15T10:28:06.234Z,1.10
2018-02-15T10:30:35.299Z,0.90
2018-02-15T10:33:03.624Z,0.90
2018-02-15T10:35:31.929Z,0.90
2018-02-15T10:38:00.260Z,1.00
2018-02-15T10:40:29.328Z,1.00
2018-02-15T10:42:57.652Z,1.00
2018-02-15T10:45:25.960Z,1.10
2018-02-15T10:47:54.294Z,1.00
2018-02-15T10:50:23.380Z,1.00
2018-02-15T10:52:52.474Z,1.20
2018-02-15T10:55:21.540Z,1.10
2018-02-15T10:57:49.868Z,1.10
2018-02-15T11:00:18.185Z,1.10
2018-02-15T11:05:49.177Z,1.20
2018-02-15T11:08:17.505Z,1.20
2018-02-15T11:10:45.814Z,0.90
2018-02-15T11:13:14.144Z,0.90
2018-02-15T11:15:43.201Z,0.90
2018-02-15T11:18:11.524Z,0.90
2018-02-15T11:20:44.353Z,1.00
2018-02-15T11:23:12.683Z,1.00
2018-02-15T11:25:40.992Z,1.20
2018-02-15T11:28:09.322Z,1.20
2018-02-15T11:30:38.398Z,1.10
2018-02-15T11:33:06.734Z,1.00
2018-02-15T11:35:35.040Z,1.20
2018-02-15T11:38:04.285Z,1.10
2018-02-15T11:40:33.357Z,1.00
2018-02-15T11:43:01.693Z,1.00
2018-02-15T11:45:29.987Z,1.10
2018-02-15T11:47:58.325Z,1.00
2018-02-15T11:50:26.648Z,1.00
2018-02-15T11:52:54.982Z,1.00
2018-02-15T11:55:23.313Z,1.20
2018-02-15T11:57:51.670Z,1.10
2018-02-15T12:00:20.158Z,1.00
2018-02-15T12:02:48.488Z,1.00
2018-02-15T12:05:17.560Z,1.10
2018-02-15T12:07:45.878Z,1.10
2018-02-15T12:10:14.204Z,1.20
2018-02-15T12:12:43.331Z,1.10
2018-02-15T12:15:12.421Z,1.30
2018-02-15T12:17:40.733Z,1.30
2018-02-15T12:20:09.065Z,1.20
2018-02-15T12:22:37.375Z,1.10
2018-02-15T12:25:06.456Z,1.30
2018-02-15T12:27:35.530Z,1.40
2018-02-15T12:30:03.864Z,1.40
2018-02-15T12:35:25.481Z,1.40
2018-02-15T12:37:54.557Z,1.00
2018-02-15T12:40:22.898Z,1.00
2018-02-15T12:42:51.205Z,1.10
2018-02-15T12:45:19.524Z,1.00
2018-02-15T12:47:47.828Z,1.00
2018-02-15T12:50:16.168Z,1.00
2018-02-15T12:52:45.286Z,1.20
2018-02-15T12:55:14.357Z,1.40
2018-02-15T12:57:44.865Z,1.60
2018-02-15T13:00:13.888Z,1.60
2018-02-15T13:02:42.209Z,1.30
2018-02-15T13:05:10.570Z,1.60
2018-02-15T13:07:38.916Z,1.60
2018-02-15T13:10:08.027Z,1.60
2018-02-15T13:12:48.143Z,1.60
2018-02-15T13:15:28.196Z,1.80
2018-02-15T13:17:56.509Z,1.60
2018-02-15T13:20:24.857Z,1.40
2018-02-15T13:22:53.168Z,1.50
2018-02-15T13:25:21.528Z,1.30
2018-02-15T13:28:01.652Z,1.20
2018-02-15T13:30:29.985Z,1.40
2018-02-15T13:32:58.298Z,1.50
2018-02-15T13:35:26.632Z,1.60
2018-02-15T13:37:55.708Z,1.60
2018-02-15T13:40:24.032Z,1.60
2018-02-15T13:42:52.349Z,1.70
2018-02-15T13:45:20.696Z,1.80
2018-02-15T13:47:49.045Z,1.80
2018-02-15T13:50:17.381Z,1.80
2018-02-15T13:52:45.715Z,1.90
2018-02-15T13:55:14.037Z,2.00
2018-02-15T13:57:42.375Z,1.70
2018-02-15T14:00:10.684Z,1.50
2018-02-15T14:02:39.015Z,1.50
2018-02-15T14:05:08.108Z,1.60
2018-02-15T14:07:37.206Z,1.70
2018-02-15T14:10:06.320Z,1.70
2018-02-15T14:12:34.645Z,1.70
2018-02-15T14:15:03.022Z,1.80
2018-02-15T14:17:31.334Z,1.70
2018-02-15T14:20:00.438Z,1.50
2018-02-15T14:22:29.524Z,1.40
2018-02-15T14:24:58.639Z,1.40
2018-02-15T14:27:26.960Z,1.40
2018-02-15T14:29:55.302Z,1.40
2018-02-15T14:32:23.608Z,1.40
2018-02-15T14:34:51.950Z,1.40
2018-02-15T14:37:21.024Z,1.40
2018-02-15T14:39:49.349Z,1.30
2018-02-15T14:42:17.684Z,1.30
2018-02-15T14:44:46.768Z,1.20
2018-02-15T14:47:15.109Z,1.20
2018-02-15T14:49:43.444Z,1.30
2018-02-15T14:52:12.551Z,1.50
2018-02-15T14:54:41.625Z,1.30
2018-02-15T14:57:09.956Z,1.30
2018-02-15T14:59:38.265Z,1.20
2018-02-15T15:02:06.603Z,1.30
2018-02-15T15:04:34.926Z,1.20
2018-02-15T15:07:03.259Z,1.20
2018-02-15T15:09:31.575Z,1.20
2018-02-15T15:11:59.908Z,1.20
2018-02-15T15:14:28.221Z,1.10
2018-02-15T15:16:56.557Z,1.10
2018-02-15T15:19:24.869Z,1.20
2018-02-15T15:21:53.215Z,1.40
2018-02-15T15:24:21.526Z,1.60
2018-02-15T15:26:49.857Z,1.60
2018-02-15T15:29:18.928Z,1.70
2018-02-15T15:31:47.270Z,1.70
2018-02-15T15:34:15.583Z,1.90
2018-02-15T15:36:43.916Z,2.00
2018-02-15T15:39:12.263Z,1.90
2018-02-15T15:41:41.354Z,1.80
2018-02-15T15:44:09.685Z,1.80
2018-02-15T15:46:38.068Z,1.80
2018-02-15T15:49:06.400Z,1.80
2018-02-15T15:51:35.485Z,1.60
2018-02-15T15:54:07.114Z,1.50
2018-02-15T15:56:35.465Z,1.50
2018-02-15T15:59:03.797Z,1.50
2018-02-15T16:01:32.104Z,1.60
2018-02-15T16:04:00.447Z,1.50
2018-02-15T16:06:28.761Z,1.60
2018-02-15T16:08:57.104Z,1.60
2018-02-15T16:11:25.421Z,1.60
2018-02-15T16:13:53.757Z,1.70
2018-02-15T16:16:22.088Z,1.60
2018-02-15T16:18:51.203Z,1.40
2018-02-15T16:21:19.515Z,1.40
2018-02-15T16:23:47.857Z,1.60
2018-02-15T16:26:16.169Z,1.60
2018-02-15T16:28:44.505Z,1.70
2018-02-15T16:31:12.811Z,1.80
2018-02-15T16:33:41.156Z,1.90
2018-02-15T16:36:09.471Z,1.80
2018-02-15T16:38:37.818Z,1.60
2018-02-15T16:41:06.130Z,1.50
2018-02-15T16:43:34.456Z,1.50
2018-02-15T16:46:02.767Z,1.30
2018-02-15T16:48:31.091Z,1.30
2018-02-15T16:50:59.522Z,1.40
2018-02-15T16:53:27.842Z,1.60
2018-02-15T16:55:56.180Z,1.80
2018-02-15T16:58:24.492Z,1.70
2018-02-15T17:00:52.825Z,1.80
2018-02-15T17:03:21.155Z,1.80
2018-02-15T17:05:49.483Z,1.80
2018-02-15T17:08:18.560Z,1.70
2018-02-15T17:10:46.902Z,1.70
2018-02-15T17:13:15.204Z,1.50
2018-02-15T17:15:44.300Z,1.40
2018-02-15T17:18:13.376Z,1.60
2018-02-15T17:20:41.709Z,1.60
2018-02-15T17:23:10.033Z,1.70
2018-02-15T17:25:38.369Z,1.70
2018-02-15T17:28:06.684Z,1.70
2018-02-15T17:30:35.969Z,1.50
2018-02-15T17:33:04.285Z,1.30
2018-02-15T17:35:33.371Z,1.20
2018-02-15T17:38:01.701Z,1.20
2018-02-15T17:40:30.036Z,1.20
2018-02-15T17:42:59.129Z,1.10
2018-02-15T17:45:27.465Z,1.10
2018-02-15T17:47:55.772Z,1.30
2018-02-15T17:50:24.112Z,1.20
2018-02-15T17:52:52.422Z,1.10
2018-02-15T17:55:20.769Z,1.20
2018-02-15T17:57:52.729Z,1.20
2018-02-15T18:00:21.077Z,1.10
2018-02-15T18:02:50.166Z,1.00
2018-02-15T18:05:19.248Z,1.10
2018-02-15T18:07:48.512Z,1.10
2018-02-15T18:10:16.820Z,1.30
2018-02-15T18:12:45.152Z,1.40
2018-02-15T18:15:13.469Z,1.50
2018-02-15T18:17:41.796Z,1.50
2018-02-15T18:20:11.050Z,1.50
2018-02-15T18:22:39.404Z,1.50
2018-02-15T18:25:10.851Z,1.50
2018-02-15T18:27:39.181Z,1.60
2018-02-15T18:30:08.295Z,1.40
2018-02-15T18:32:36.630Z,1.40
2018-02-15T18:35:04.946Z,1.20
2018-02-15T18:37:34.041Z,1.30
2018-02-15T18:40:03.125Z,1.50
2018-02-15T18:42:31.460Z,1.50
2018-02-15T18:44:59.849Z,1.60
2018-02-15T18:47:28.193Z,1.60
2018-02-15T18:49:56.508Z,1.50
2018-02-15T18:52:24.850Z,1.30
2018-02-15T18:54:53.157Z,1.40
2018-02-15T18:57:21.500Z,1.50
2018-02-15T18:59:49.814Z,1.60
2018-02-15T19:02:18.153Z,1.50
2018-02-15T19:04:46.479Z,1.30
2018-02-15T19:07:14.806Z,1.30
2018-02-15T19:09:43.905Z,1.40
2018-02-15T19:12:12.217Z,1.40
2018-02-15T19:14:40.559Z,1.40
2018-02-15T19:17:09.623Z,1.60
2018-02-15T19:19:37.994Z,1.60
2018-02-15T19:22:06.321Z,1.60
2018-02-15T19:24:34.664Z,1.70
2018-02-15T19:27:02.981Z,1.60
2018-02-15T19:29:31.337Z,1.60
2018-02-15T19:31:59.684Z,1.60
2018-02-15T19:34:28.028Z,1.60
2018-02-15T19:36:56.359Z,1.70
2018-02-15T19:39:24.703Z,1.70
2018-02-15T19:42:03.062Z,1.70
2018-02-15T19:44:31.411Z,1.80
2018-02-15T19:46:59.730Z,1.80
2018-02-15T19:49:28.845Z,1.80
2018-02-15T19:51:57.157Z,1.80
2018-02-15T19:54:25.502Z,1.70
2018-02-15T19:56:53.836Z,1.70
2018-02-15T19:59:22.168Z,1.70
2018-02-15T20:01:50.524Z,1.70
2018-02-15T20:04:18.890Z,1.70
2018-02-15T20:06:47.963Z,1.80
2018-02-15T20:09:16.300Z,1.80
2018-02-15T20:11:45.385Z,1.80
2018-02-15T20:14:13.728Z,1.70
2018-02-15T20:16:42.061Z,1.80
2018-02-15T20:19:10.394Z,1.70
2018-02-15T20:21:38.704Z,1.70
2018-02-15T20:24:07.067Z,1.70
2018-02-15T20:26:41.880Z,1.80
2018-02-15T20:29:10.212Z,1.80
2018-02-15T20:31:38.532Z,1.80
2018-02-15T20:34:06.872Z,1.80
2018-02-15T20:36:35.184Z,1.70
2018-02-15T20:39:09.186Z,1.70
2018-02-15T20:41:37.502Z,1.80
2018-02-15T20:44:09.875Z,1.80
2018-02-15T20:46:38.953Z,1.80
2018-02-15T20:49:13.581Z,1.80
2018-02-15T20:51:47.500Z,1.80
2018-02-15T20:54:22.260Z,1.80
2018-02-15T20:56:50.576Z,1.80
2018-02-15T20:59:18.921Z,1.70
2018-02-15T21:01:47.232Z,1.70
2018-02-15T21:04:15.589Z,1.70
2018-02-15T21:06:43.903Z,1.70
2018-02-15T21:09:12.255Z,1.80
2018-02-15T21:11:40.590Z,1.70
2018-02-15T21:14:09.678Z,1.70
2018-02-15T21:16:38.785Z,1.70
2018-02-15T21:19:07.109Z,1.70
2018-02-15T21:21:35.443Z,1.70
2018-02-15T21:24:03.769Z,1.70
2018-02-15T21:26:32.101Z,1.70
2018-02-15T21:29:00.454Z,1.60
2018-02-15T21:31:28.788Z,1.50
2018-02-15T21:33:57.096Z,1.50
2018-02-15T21:36:25.432Z,1.60
2018-02-15T21:38:53.744Z,1.60
2018-02-15T21:41:22.081Z,1.70
2018-02-15T21:43:50.409Z,1.70
2018-02-15T21:46:18.766Z,1.70
2018-02-15T21:48:47.083Z,1.70
2018-02-15T21:51:15.424Z,1.60
2018-02-15T21:53:43.779Z,1.60
2018-02-15T21:56:12.091Z,1.60
2018-02-15T21:58:40.430Z,1.60
2018-02-15T22:01:08.753Z,1.70
2018-02-15T22:03:37.131Z,1.70
2018-02-15T22:06:05.443Z,1.70
2018-02-15T22:08:34.553Z,1.80
2018-02-15T22:11:03.628Z,1.80
2018-02-15T22:13:31.974Z,1.80
2018-02-15T22:16:00.288Z,1.80
2018-02-15T22:18:29.395Z,1.70
2018-02-15T22:20:58.488Z,1.60
2018-02-15T22:23:27.587Z,1.60
2018-02-15T22:25:56.685Z,1.60
2018-02-15T22:28:25.795Z,1.70
2018-02-15T22:30:54.133Z,1.70
2018-02-15T22:33:22.501Z,1.60
2018-02-15T22:35:50.833Z,1.60
2018-02-15T22:38:19.191Z,1.60
2018-02-15T22:40:48.284Z,1.70
2018-02-15T22:43:17.369Z,1.60
2018-02-15T22:45:45.703Z,1.60
2018-02-15T22:48:14.042Z,1.60
2018-02-15T22:50:43.146Z,1.70
2018-02-15T22:53:12.221Z,1.80
2018-02-15T22:55:40.568Z,1.80
2018-02-15T22:58:08.879Z,1.70
2018-02-15T23:00:37.231Z,1.70
2018-02-15T23:03:07.072Z,1.70
2018-02-15T23:05:35.409Z,1.70
2018-02-15T23:08:03.749Z,1.80
2018-02-15T23:10:32.101Z,1.80
2018-02-15T23:13:01.207Z,1.70
2018-02-15T23:15:30.314Z,1.70
2018-02-15T23:17:59.396Z,1.80
2018-02-15T23:20:27.745Z,1.70
2018-02-15T23:22:56.068Z,1.80
2018-02-15T23:25:24.453Z,1.80
2018-02-15T23:27:53.548Z,1.70
2018-02-15T23:30:21.895Z,1.70
2018-02-15T23:32:50.245Z,1.80
2018-02-15T23:35:18.573Z,1.80
2018-02-15T23:37:46.926Z,1.80
2018-02-15T23:40:15.242Z,1.80
2018-02-15T23:42:44.437Z,1.90
2018-02-15T23:45:13.532Z,1.80
2018-02-15T23:47:41.917Z,1.80
